sensor_id;sensor_type;location;lat;lon;timestamp;pressure;altitude;pressure_sealevel;temperature;humidity
70445;BME280;57902;49.638;11.070;2022-11-02T00:01:39;98892.56;;;9.21;100.00
70445;BME280;57902;49.638;11.070;2022-11-02T00:04:09;98892.53;;;9.23;100.00
70445;BME280;57902;49.638;11.070;2022-11-02T00:06:36;98900.19;;;9.27;100.00
70445;BME280;57902;49.638;11.070;2022-11-02T00:09:03;98901.00;;;9.31;100.00
70445;BME280;57902;49.638;11.070;2022-11-02T00:11:29;98898.44;;;9.30;100.00
70445;BME280;57902;49.638;11.070;2022-11-02T00:13:56;98893.25;;;9.33;100.00
70445;BME280;57902;49.638;11.070;2022-11-02T00:16:22;98896.66;;;9.35;100.00
70445;BME280;57902;49.638;11.070;2022-11-02T00:18:54;98892.31;;;9.38;100.00
70445;BME280;57902;49.638;11.070;2022-11-02T00:21:22;98893.94;;;9.42;100.00
70445;BME280;57902;49.638;11.070;2022-11-02T00:23:50;98899.88;;;9.49;100.00
70445;BME280;57902;49.638;11.070;2022-11-02T00:26:17;98887.88;;;9.48;100.00
70445;BME280;57902;49.638;11.070;2022-11-02T00:28:44;98896.38;;;9.53;100.00
70445;BME280;57902;49.638;11.070;2022-11-02T00:31:10;98901.47;;;9.56;100.00
70445;BME280;57902;49.638;11.070;2022-11-02T00:33:37;98905.72;;;9.59;100.00
70445;BME280;57902;49.638;11.070;2022-11-02T00:36:03;98908.28;;;9.60;100.00
70445;BME280;57902;49.638;11.070;2022-11-02T00:38:30;98907.34;;;9.64;100.00
70445;BME280;57902;49.638;11.070;2022-11-02T00:40:58;98902.13;;;9.69;100.00
70445;BME280;57902;49.638;11.070;2022-11-02T00:43:24;98904.66;;;9.72;100.00
70445;BME280;57902;49.638;11.070;2022-11-02T00:45:51;98913.22;;;9.73;100.00
70445;BME280;57902;49.638;11.070;2022-11-02T00:48:17;98909.75;;;9.75;100.00
70445;BME280;57902;49.638;11.070;2022-11-02T00:50:44;98907.97;;;9.79;100.00
70445;BME280;57902;49.638;11.070;2022-11-02T00:53:10;98902.75;;;9.82;100.00
70445;BME280;57902;49.638;11.070;2022-11-02T00:55:37;98905.31;;;9.85;100.00
70445;BME280;57902;49.638;11.070;2022-11-02T00:58:03;98910.41;;;9.88;100.00
70445;BME280;57902;49.638;11.070;2022-11-02T01:00:30;98917.19;;;9.92;100.00
70445;BME280;57902;49.638;11.070;2022-11-02T01:03:01;98911.13;;;9.95;100.00
70445;BME280;57902;49.638;11.070;2022-11-02T01:05:28;98909.38;;;9.98;100.00
70445;BME280;57902;49.638;11.070;2022-11-02T01:07:54;98906.75;;;10.02;100.00
70445;BME280;57902;49.638;11.070;2022-11-02T01:10:22;98914.44;;;10.03;100.00
70445;BME280;57902;49.638;11.070;2022-11-02T01:12:49;98906.72;;;10.03;100.00
70445;BME280;57902;49.638;11.070;2022-11-02T01:15:15;98904.09;;;10.06;100.00
70445;BME280;57902;49.638;11.070;2022-11-02T01:17:42;98910.03;;;10.10;100.00
70445;BME280;57902;49.638;11.070;2022-11-02T01:20:08;98909.09;;;10.14;100.00
70445;BME280;57902;49.638;11.070;2022-11-02T01:22:35;98908.97;;;10.20;100.00
70445;BME280;57902;49.638;11.070;2022-11-02T01:25:02;98910.56;;;10.27;100.00
70445;BME280;57902;49.638;11.070;2022-11-02T01:27:28;98906.19;;;10.34;100.00
70445;BME280;57902;49.638;11.070;2022-11-02T01:29:55;98900.94;;;10.39;100.00
70445;BME280;57902;49.638;11.070;2022-11-02T01:32:21;98908.56;;;10.45;100.00
70445;BME280;57902;49.638;11.070;2022-11-02T01:34:48;98910.22;;;10.49;100.00
70445;BME280;57902;49.638;11.070;2022-11-02T01:37:14;98903.25;;;10.54;100.00
70445;BME280;57902;49.638;11.070;2022-11-02T01:39:41;98900.59;;;10.57;100.00
70445;BME280;57902;49.638;11.070;2022-11-02T01:44:44;98897.03;;;10.64;100.00
70445;BME280;57902;49.638;11.070;2022-11-02T01:49:46;98894.25;;;10.74;100.00
70445;BME280;57902;49.638;11.070;2022-11-02T01:52:18;98896.75;;;10.78;100.00
70445;BME280;57902;49.638;11.070;2022-11-02T01:54:56;98898.41;;;10.81;100.00
70445;BME280;57902;49.638;11.070;2022-11-02T01:57:26;98888.91;;;10.83;100.00
70445;BME280;57902;49.638;11.070;2022-11-02T02:00:04;98894.91;;;10.85;99.88
70445;BME280;57902;49.638;11.070;2022-11-02T02:02:34;98888.75;;;10.89;98.70
70445;BME280;57902;49.638;11.070;2022-11-02T02:05:05;98888.66;;;10.94;97.78
70445;BME280;57902;49.638;11.070;2022-11-02T02:07:34;98891.31;;;10.91;97.58
70445;BME280;57902;49.638;11.070;2022-11-02T02:10:02;98895.63;;;10.90;97.39
70445;BME280;57902;49.638;11.070;2022-11-02T02:12:30;98884.53;;;10.87;97.17
70445;BME280;57902;49.638;11.070;2022-11-02T02:14:57;98878.56;;;10.84;96.52
70445;BME280;57902;49.638;11.070;2022-11-02T02:22:42;98887.47;;;10.70;94.11
70445;BME280;57902;49.638;11.070;2022-11-02T02:28:05;98876.41;;;10.64;94.11
70445;BME280;57902;49.638;11.070;2022-11-02T02:30:57;98873.03;;;10.61;93.54
70445;BME280;57902;49.638;11.070;2022-11-02T02:33:41;98878.25;;;10.58;93.22
70445;BME280;57902;49.638;11.070;2022-11-02T02:41:23;98863.69;;;10.55;93.80
70445;BME280;57902;49.638;11.070;2022-11-02T02:43:55;98865.56;;;10.48;94.31
70445;BME280;57902;49.638;11.070;2022-11-02T02:46:59;98875.94;;;10.45;94.26
70445;BME280;57902;49.638;11.070;2022-11-02T02:49:37;98857.94;;;10.41;94.92
70445;BME280;57902;49.638;11.070;2022-11-02T02:52:06;98870.00;;;10.40;94.58
70445;BME280;57902;49.638;11.070;2022-11-02T02:54:37;98868.38;;;10.35;94.91
70445;BME280;57902;49.638;11.070;2022-11-02T02:57:14;98867.59;;;10.29;94.52
70445;BME280;57902;49.638;11.070;2022-11-02T02:59:43;98865.97;;;10.25;95.49
70445;BME280;57902;49.638;11.070;2022-11-02T03:02:15;98863.47;;;10.21;95.63
70445;BME280;57902;49.638;11.070;2022-11-02T03:04:42;98862.66;;;10.17;95.49
70445;BME280;57902;49.638;11.070;2022-11-02T03:07:11;98860.97;;;10.18;95.27
70445;BME280;57902;49.638;11.070;2022-11-02T03:09:41;98861.03;;;10.11;95.70
70445;BME280;57902;49.638;11.070;2022-11-02T03:28:48;98862.69;;;9.67;97.99
70445;BME280;57902;49.638;11.070;2022-11-02T03:34:40;98861.69;;;9.76;97.25
70445;BME280;57902;49.638;11.070;2022-11-02T03:39:52;98851.25;;;9.82;97.29
70445;BME280;57902;49.638;11.070;2022-11-02T03:42:22;98860.66;;;9.85;96.77
70445;BME280;57902;49.638;11.070;2022-11-02T03:44:57;98864.94;;;9.87;96.98
70445;BME280;57902;49.638;11.070;2022-11-02T03:47:25;98868.31;;;9.89;96.76
70445;BME280;57902;49.638;11.070;2022-11-02T03:49:56;98863.09;;;9.92;96.46
70445;BME280;57902;49.638;11.070;2022-11-02T03:52:25;98869.97;;;9.93;96.35
70445;BME280;57902;49.638;11.070;2022-11-02T03:55:07;98875.06;;;9.96;96.30
70445;BME280;57902;49.638;11.070;2022-11-02T03:57:47;98863.88;;;9.97;96.33
70445;BME280;57902;49.638;11.070;2022-11-02T04:00:17;98869.03;;;9.97;96.45
70445;BME280;57902;49.638;11.070;2022-11-02T04:02:46;98871.66;;;9.96;97.29
70445;BME280;57902;49.638;11.070;2022-11-02T04:05:14;98875.00;;;9.99;96.88
70445;BME280;57902;49.638;11.070;2022-11-02T04:07:43;98874.94;;;10.03;96.80
70445;BME280;57902;49.638;11.070;2022-11-02T04:10:30;98870.72;;;10.00;97.75
70445;BME280;57902;49.638;11.070;2022-11-02T04:12:57;98864.66;;;10.01;96.95
70445;BME280;57902;49.638;11.070;2022-11-02T04:15:42;98883.59;;;10.00;97.78
70445;BME280;57902;49.638;11.070;2022-11-02T04:18:08;98873.25;;;10.02;97.37
70445;BME280;57902;49.638;11.070;2022-11-02T04:20:53;98868.19;;;9.97;98.47
70445;BME280;57902;49.638;11.070;2022-11-02T04:23:20;98869.91;;;9.96;98.07
70445;BME280;57902;49.638;11.070;2022-11-02T04:26:04;98870.81;;;9.95;98.23
70445;BME280;57902;49.638;11.070;2022-11-02T04:28:31;98869.13;;;9.93;98.78
70445;BME280;57902;49.638;11.070;2022-11-02T04:30:57;98871.72;;;9.91;98.67
70445;BME280;57902;49.638;11.070;2022-11-02T04:33:26;98878.56;;;9.92;98.71
70445;BME280;57902;49.638;11.070;2022-11-02T04:36:00;98881.16;;;9.91;98.79
70445;BME280;57902;49.638;11.070;2022-11-02T04:38:28;98880.38;;;9.87;98.65
70445;BME280;57902;49.638;11.070;2022-11-02T04:41:09;98876.09;;;9.86;99.34
70445;BME280;57902;49.638;11.070;2022-11-02T04:43:55;98868.47;;;9.80;99.22
70445;BME280;57902;49.638;11.070;2022-11-02T04:46:23;98872.00;;;9.74;100.00
70445;BME280;57902;49.638;11.070;2022-11-02T04:48:50;98869.44;;;9.73;99.95
70445;BME280;57902;49.638;11.070;2022-11-02T04:51:17;98874.63;;;9.71;100.00
70445;BME280;57902;49.638;11.070;2022-11-02T04:53:43;98881.56;;;9.68;100.00
70445;BME280;57902;49.638;11.070;2022-11-02T04:56:10;98879.84;;;9.67;100.00
70445;BME280;57902;49.638;11.070;2022-11-02T04:58:36;98884.16;;;9.66;100.00
70445;BME280;57902;49.638;11.070;2022-11-02T05:01:08;98876.41;;;9.69;100.00
70445;BME280;57902;49.638;11.070;2022-11-02T05:03:36;98882.44;;;9.67;100.00
70445;BME280;57902;49.638;11.070;2022-11-02T05:06:02;98885.06;;;9.63;100.00
70445;BME280;57902;49.638;11.070;2022-11-02T05:08:29;98888.63;;;9.55;100.00
70445;BME280;57902;49.638;11.070;2022-11-02T05:10:56;98890.38;;;9.53;100.00
70445;BME280;57902;49.638;11.070;2022-11-02T05:13:23;98887.78;;;9.53;100.00
70445;BME280;57902;49.638;11.070;2022-11-02T05:15:52;98884.44;;;9.49;100.00
70445;BME280;57902;49.638;11.070;2022-11-02T05:18:20;98884.47;;;9.46;100.00
70445;BME280;57902;49.638;11.070;2022-11-02T05:20:51;98886.19;;;9.47;100.00
70445;BME280;57902;49.638;11.070;2022-11-02T05:23:18;98885.47;;;9.37;100.00
70445;BME280;57902;49.638;11.070;2022-11-02T05:25:56;98888.06;;;9.36;100.00
70445;BME280;57902;49.638;11.070;2022-11-02T05:28:23;98885.50;;;9.36;100.00
70445;BME280;57902;49.638;11.070;2022-11-02T05:30:50;98887.19;;;9.37;100.00
70445;BME280;57902;49.638;11.070;2022-11-02T05:33:17;98880.38;;;9.33;100.00
70445;BME280;57902;49.638;11.070;2022-11-02T05:35:44;98891.59;;;9.28;100.00
70445;BME280;57902;49.638;11.070;2022-11-02T05:38:11;98888.28;;;9.20;100.00
70445;BME280;57902;49.638;11.070;2022-11-02T05:40:37;98895.16;;;9.18;100.00
70445;BME280;57902;49.638;11.070;2022-11-02T05:43:07;98884.06;;;9.16;100.00
70445;BME280;57902;49.638;11.070;2022-11-02T05:45:34;98896.91;;;9.18;100.00
70445;BME280;57902;49.638;11.070;2022-11-02T05:48:03;98897.78;;;9.17;100.00
70445;BME280;57902;49.638;11.070;2022-11-02T05:50:32;98904.59;;;9.19;100.00
70445;BME280;57902;49.638;11.070;2022-11-02T05:52:59;98902.00;;;9.21;100.00
70445;BME280;57902;49.638;11.070;2022-11-02T05:55:25;98902.88;;;9.20;100.00
70445;BME280;57902;49.638;11.070;2022-11-02T05:57:53;98902.06;;;9.18;100.00
70445;BME280;57902;49.638;11.070;2022-11-02T06:00:21;98908.91;;;9.17;100.00
70445;BME280;57902;49.638;11.070;2022-11-02T06:02:47;98908.00;;;9.20;100.00
70445;BME280;57902;49.638;11.070;2022-11-02T06:05:14;98908.06;;;9.17;100.00
70445;BME280;57902;49.638;11.070;2022-11-02T06:07:41;98918.31;;;9.20;100.00
70445;BME280;57902;49.638;11.070;2022-11-02T06:10:07;98920.91;;;9.17;100.00
70445;BME280;57902;49.638;11.070;2022-11-02T06:12:34;98919.16;;;9.19;100.00
70445;BME280;57902;49.638;11.070;2022-11-02T06:15:00;98920.91;;;9.18;100.00
70445;BME280;57902;49.638;11.070;2022-11-02T06:17:27;98922.59;;;9.19;100.00
70445;BME280;57902;49.638;11.070;2022-11-02T06:19:53;98914.84;;;9.22;100.00
70445;BME280;57902;49.638;11.070;2022-11-02T06:22:20;98921.66;;;9.26;100.00
70445;BME280;57902;49.638;11.070;2022-11-02T06:24:46;98920.00;;;9.22;100.00
70445;BME280;57902;49.638;11.070;2022-11-02T06:27:13;98924.28;;;9.20;100.00
70445;BME280;57902;49.638;11.070;2022-11-02T06:29:39;98935.28;;;9.32;100.00
70445;BME280;57902;49.638;11.070;2022-11-02T06:32:05;98934.47;;;9.30;100.00
70445;BME280;57902;49.638;11.070;2022-11-02T06:34:32;98935.25;;;9.33;100.00
70445;BME280;57902;49.638;11.070;2022-11-02T06:36:58;98936.94;;;9.37;100.00
70445;BME280;57902;49.638;11.070;2022-11-02T06:39:25;98939.34;;;9.48;100.00
70445;BME280;57902;49.638;11.070;2022-11-02T06:41:51;98946.13;;;9.54;99.63
70445;BME280;57902;49.638;11.070;2022-11-02T06:44:18;98946.78;;;9.67;98.76
70445;BME280;57902;49.638;11.070;2022-11-02T06:46:44;98947.59;;;9.69;98.17
70445;BME280;57902;49.638;11.070;2022-11-02T06:49:11;98942.34;;;9.78;97.50
70445;BME280;57902;49.638;11.070;2022-11-02T06:51:37;98960.22;;;9.86;97.66
70445;BME280;57902;49.638;11.070;2022-11-02T06:54:03;98962.59;;;9.98;96.53
70445;BME280;57902;49.638;11.070;2022-11-02T06:56:34;98965.13;;;10.01;96.38
70445;BME280;57902;49.638;11.070;2022-11-02T06:59:00;98976.94;;;10.16;95.83
70445;BME280;57902;49.638;11.070;2022-11-02T07:01:27;98969.72;;;10.37;94.35
70445;BME280;57902;49.638;11.070;2022-11-02T07:03:53;98975.31;;;10.60;94.41
70445;BME280;57902;49.638;11.070;2022-11-02T07:06:20;98972.97;;;10.92;91.61
70445;BME280;57902;49.638;11.070;2022-11-02T07:08:46;98974.44;;;11.05;90.44
70445;BME280;57902;49.638;11.070;2022-11-02T07:11:14;98970.69;;;11.20;88.03
70445;BME280;57902;49.638;11.070;2022-11-02T07:13:41;98970.75;;;11.17;87.94
70445;BME280;57902;49.638;11.070;2022-11-02T07:16:08;98974.94;;;11.23;87.19
70445;BME280;57902;49.638;11.070;2022-11-02T07:18:35;98978.28;;;11.28;87.47
70445;BME280;57902;49.638;11.070;2022-11-02T07:21:01;98975.38;;;11.42;87.29
70445;BME280;57902;49.638;11.070;2022-11-02T07:23:28;98981.94;;;11.56;86.13
70445;BME280;57902;49.638;11.070;2022-11-02T07:25:54;98983.19;;;11.78;85.98
70445;BME280;57902;49.638;11.070;2022-11-02T07:28:21;98986.28;;;11.92;84.73
70445;BME280;57902;49.638;11.070;2022-11-02T07:30:47;98999.59;;;12.13;82.94
70445;BME280;57902;49.638;11.070;2022-11-02T07:33:14;99006.19;;;12.26;82.11
70445;BME280;57902;49.638;11.070;2022-11-02T07:35:40;98996.25;;;12.45;81.13
70445;BME280;57902;49.638;11.070;2022-11-02T07:38:08;99000.25;;;12.57;81.32
70445;BME280;57902;49.638;11.070;2022-11-02T07:40:35;99003.19;;;12.76;79.57
70445;BME280;57902;49.638;11.070;2022-11-02T07:43:02;99008.38;;;12.41;80.36
70445;BME280;57902;49.638;11.070;2022-11-02T07:45:30;99012.03;;;12.67;80.29
70445;BME280;57902;49.638;11.070;2022-11-02T07:47:57;99010.81;;;12.81;79.49
70445;BME280;57902;49.638;11.070;2022-11-02T07:50:24;99016.97;;;13.08;78.14
70445;BME280;57902;49.638;11.070;2022-11-02T07:52:54;99016.69;;;13.19;78.78
70445;BME280;57902;49.638;11.070;2022-11-02T07:55:23;99009.38;;;13.31;77.65
70445;BME280;57902;49.638;11.070;2022-11-02T07:57:58;99011.66;;;13.44;77.65
70445;BME280;57902;49.638;11.070;2022-11-02T08:00:31;99012.59;;;13.41;76.87
70445;BME280;57902;49.638;11.070;2022-11-02T08:02:59;99028.34;;;13.34;76.11
70445;BME280;57902;49.638;11.070;2022-11-02T08:05:27;99021.84;;;13.50;75.08
70445;BME280;57902;49.638;11.070;2022-11-02T08:08:01;99029.72;;;13.16;77.24
70445;BME280;57902;49.638;11.070;2022-11-02T08:10:30;99034.16;;;13.10;77.25
70445;BME280;57902;49.638;11.070;2022-11-02T08:13:06;99032.97;;;12.91;79.58
70445;BME280;57902;49.638;11.070;2022-11-02T08:15:32;99035.38;;;12.97;78.44
70445;BME280;57902;49.638;11.070;2022-11-02T08:18:08;99029.59;;;12.87;79.24
70445;BME280;57902;49.638;11.070;2022-11-02T08:20:35;99032.00;;;12.62;80.48
70445;BME280;57902;49.638;11.070;2022-11-02T08:23:02;99033.03;;;12.55;80.76
70445;BME280;57902;49.638;11.070;2022-11-02T08:25:29;99027.09;;;12.51;81.29
70445;BME280;57902;49.638;11.070;2022-11-02T08:27:56;99030.56;;;12.50;81.04
70445;BME280;57902;49.638;11.070;2022-11-02T08:30:25;99049.84;;;12.38;81.63
70445;BME280;57902;49.638;11.070;2022-11-02T08:32:51;99049.13;;;12.33;82.35
70445;BME280;57902;49.638;11.070;2022-11-02T08:35:22;99056.78;;;12.36;82.41
70445;BME280;57902;49.638;11.070;2022-11-02T08:37:53;99060.22;;;12.37;81.97
70445;BME280;57902;49.638;11.070;2022-11-02T08:40:20;99057.88;;;12.28;83.67
70445;BME280;57902;49.638;11.070;2022-11-02T08:42:47;99059.56;;;12.27;83.39
70445;BME280;57902;49.638;11.070;2022-11-02T08:45:13;99058.75;;;12.27;82.61
70445;BME280;57902;49.638;11.070;2022-11-02T08:47:40;99063.19;;;12.20;83.03
70445;BME280;57902;49.638;11.070;2022-11-02T08:50:09;99075.31;;;12.18;83.05
70445;BME280;57902;49.638;11.070;2022-11-02T08:52:36;99062.53;;;12.12;83.41
70445;BME280;57902;49.638;11.070;2022-11-02T08:55:06;99070.09;;;12.19;83.16
70445;BME280;57902;49.638;11.070;2022-11-02T08:57:43;99063.06;;;12.26;82.88
70445;BME280;57902;49.638;11.070;2022-11-02T09:00:10;99075.09;;;12.27;83.71
70445;BME280;57902;49.638;11.070;2022-11-02T09:02:37;99075.13;;;12.25;83.84
70445;BME280;57902;49.638;11.070;2022-11-02T09:05:03;99071.75;;;12.23;83.80
70445;BME280;57902;49.638;11.070;2022-11-02T09:07:30;99081.25;;;12.21;84.28
70445;BME280;57902;49.638;11.070;2022-11-02T09:09:56;99073.47;;;12.23;83.88
70445;BME280;57902;49.638;11.070;2022-11-02T09:12:23;99081.13;;;12.28;83.42
70445;BME280;57902;49.638;11.070;2022-11-02T09:14:49;99068.09;;;12.32;83.52
70445;BME280;57902;49.638;11.070;2022-11-02T09:17:16;99071.44;;;12.36;83.89
70445;BME280;57902;49.638;11.070;2022-11-02T09:19:42;99070.56;;;12.37;84.11
70445;BME280;57902;49.638;11.070;2022-11-02T09:22:09;99065.06;;;12.49;83.53
70445;BME280;57902;49.638;11.070;2022-11-02T09:24:35;99075.88;;;12.65;82.23
70445;BME280;57902;49.638;11.070;2022-11-02T09:27:19;99074.00;;;12.72;82.38
70445;BME280;57902;49.638;11.070;2022-11-02T09:30:03;99069.91;;;12.96;81.10
70445;BME280;57902;49.638;11.070;2022-11-02T09:32:30;99076.31;;;13.16;80.96
70445;BME280;57902;49.638;11.070;2022-11-02T09:35:00;99075.22;;;13.24;81.02
70445;BME280;57902;49.638;11.070;2022-11-02T09:37:27;99080.91;;;13.37;80.93
70445;BME280;57902;49.638;11.070;2022-11-02T09:39:54;99080.47;;;13.53;79.69
70445;BME280;57902;49.638;11.070;2022-11-02T09:45:02;99078.91;;;13.77;78.84
70445;BME280;57902;49.638;11.070;2022-11-02T09:47:31;99082.16;;;13.83;77.85
70445;BME280;57902;49.638;11.070;2022-11-02T09:50:30;99086.22;;;13.92;77.30
70445;BME280;57902;49.638;11.070;2022-11-02T09:53:03;99081.81;;;13.94;78.88
70445;BME280;57902;49.638;11.070;2022-11-02T09:55:35;99083.03;;;14.11;76.51
70445;BME280;57902;49.638;11.070;2022-11-02T09:58:10;99090.75;;;14.14;75.80
70445;BME280;57902;49.638;11.070;2022-11-02T10:00:39;99089.72;;;14.18;74.73
70445;BME280;57902;49.638;11.070;2022-11-02T10:03:38;99079.72;;;14.07;76.29
70445;BME280;57902;49.638;11.070;2022-11-02T10:06:12;99083.97;;;14.10;75.97
70445;BME280;57902;49.638;11.070;2022-11-02T10:11:36;99086.41;;;14.14;73.41
70445;BME280;57902;49.638;11.070;2022-11-02T10:14:15;99083.50;;;14.24;72.64
70445;BME280;57902;49.638;11.070;2022-11-02T10:19:55;99084.38;;;14.24;71.28
70445;BME280;57902;49.638;11.070;2022-11-02T10:22:26;99089.06;;;14.13;72.98
70445;BME280;57902;49.638;11.070;2022-11-02T10:24:58;99082.22;;;14.10;73.20
70445;BME280;57902;49.638;11.070;2022-11-02T10:27:28;99075.50;;;14.03;73.82
70445;BME280;57902;49.638;11.070;2022-11-02T10:30:12;99082.31;;;14.07;73.77
70445;BME280;57902;49.638;11.070;2022-11-02T10:32:40;99080.50;;;14.09;73.40
70445;BME280;57902;49.638;11.070;2022-11-02T10:46:36;99079.47;;;13.87;74.71
70445;BME280;57902;49.638;11.070;2022-11-02T10:51:49;99078.59;;;13.88;72.95
70445;BME280;57902;49.638;11.070;2022-11-02T10:54:16;99071.06;;;13.78;73.74
70445;BME280;57902;49.638;11.070;2022-11-02T10:56:55;99085.03;;;13.74;74.45
70445;BME280;57902;49.638;11.070;2022-11-02T10:59:22;99078.06;;;13.76;74.61
70445;BME280;57902;49.638;11.070;2022-11-02T11:04:24;99082.31;;;13.79;73.77
70445;BME280;57902;49.638;11.070;2022-11-02T11:06:52;99075.09;;;13.89;71.28
70445;BME280;57902;49.638;11.070;2022-11-02T11:09:22;99072.31;;;13.95;71.49
70445;BME280;57902;49.638;11.070;2022-11-02T11:12:05;99075.13;;;13.87;71.30
70445;BME280;57902;49.638;11.070;2022-11-02T11:14:45;99073.13;;;13.97;71.51
70445;BME280;57902;49.638;11.070;2022-11-02T11:17:35;99070.31;;;14.03;72.35
70445;BME280;57902;49.638;11.070;2022-11-02T11:20:35;99067.50;;;14.11;72.50
70445;BME280;57902;49.638;11.070;2022-11-02T11:25:34;99072.00;;;14.32;70.25
70445;BME280;57902;49.638;11.070;2022-11-02T11:28:01;99072.41;;;14.47;67.71
70445;BME280;57902;49.638;11.070;2022-11-02T11:30:33;99079.34;;;14.46;66.17
70445;BME280;57902;49.638;11.070;2022-11-02T11:33:21;99073.50;;;14.40;66.46
70445;BME280;57902;49.638;11.070;2022-11-02T11:35:49;99086.63;;;14.35;66.33
70445;BME280;57902;49.638;11.070;2022-11-02T11:38:18;99085.38;;;14.20;66.81
70445;BME280;57902;49.638;11.070;2022-11-02T11:40:48;99088.22;;;14.12;67.25
70445;BME280;57902;49.638;11.070;2022-11-02T11:43:21;99091.94;;;14.04;67.36
70445;BME280;57902;49.638;11.070;2022-11-02T11:46:00;99085.19;;;13.98;67.27
70445;BME280;57902;49.638;11.070;2022-11-02T11:48:39;99076.94;;;13.85;68.35
70445;BME280;57902;49.638;11.070;2022-11-02T11:56:30;99083.56;;;13.65;69.16
70445;BME280;57902;49.638;11.070;2022-11-02T11:58:58;99077.41;;;13.68;70.28
70445;BME280;57902;49.638;11.070;2022-11-02T12:01:24;99085.25;;;13.67;69.98
70445;BME280;57902;49.638;11.070;2022-11-02T12:03:59;99076.41;;;13.74;69.60
70445;BME280;57902;49.638;11.070;2022-11-02T12:06:51;99075.19;;;13.86;69.69
70445;BME280;57902;49.638;11.070;2022-11-02T12:09:47;99074.69;;;14.03;67.98
70445;BME280;57902;49.638;11.070;2022-11-02T12:12:34;99074.19;;;14.18;66.43
70445;BME280;57902;49.638;11.070;2022-11-02T12:26:29;99085.91;;;14.30;61.51
70445;BME280;57902;49.638;11.070;2022-11-02T12:29:15;99077.53;;;14.22;60.92
70445;BME280;57902;49.638;11.070;2022-11-02T12:41:03;99068.38;;;13.83;62.13
70445;BME280;57902;49.638;11.070;2022-11-02T12:43:49;99071.25;;;13.72;62.96
70445;BME280;57902;49.638;11.070;2022-11-02T12:46:38;99068.13;;;13.61;63.67
70445;BME280;57902;49.638;11.070;2022-11-02T12:49:30;99065.03;;;13.50;64.51
70445;BME280;57902;49.638;11.070;2022-11-02T12:54:47;99059.44;;;13.32;64.77
70445;BME280;57902;49.638;11.070;2022-11-02T12:57:19;99057.88;;;13.26;65.03
70445;BME280;57902;49.638;11.070;2022-11-02T12:59:50;99050.16;;;13.25;64.59
70445;BME280;57902;49.638;11.070;2022-11-02T13:05:07;99047.31;;;13.03;65.14
70445;BME280;57902;49.638;11.070;2022-11-02T13:07:44;99048.38;;;12.95;65.61
70445;BME280;57902;49.638;11.070;2022-11-02T13:10:23;99051.03;;;12.92;65.58
70445;BME280;57902;49.638;11.070;2022-11-02T13:12:57;99048.41;;;12.94;65.67
70445;BME280;57902;49.638;11.070;2022-11-02T13:15:26;99042.41;;;12.93;66.41
70445;BME280;57902;49.638;11.070;2022-11-02T13:18:03;99038.78;;;12.99;66.32
70445;BME280;57902;49.638;11.070;2022-11-02T13:20:48;99039.31;;;13.10;65.74
70445;BME280;57902;49.638;11.070;2022-11-02T13:23:25;99038.19;;;13.21;64.92
70445;BME280;57902;49.638;11.070;2022-11-02T13:25:57;99032.81;;;13.27;64.94
70445;BME280;57902;49.638;11.070;2022-11-02T13:28:40;99025.78;;;13.32;64.44
70445;BME280;57902;49.638;11.070;2022-11-02T13:31:32;99030.09;;;13.33;64.06
70445;BME280;57902;49.638;11.070;2022-11-02T13:34:03;99043.00;;;13.35;64.82
70445;BME280;57902;49.638;11.070;2022-11-02T13:36:36;99035.16;;;13.38;64.78
70445;BME280;57902;49.638;11.070;2022-11-02T13:39:14;99034.19;;;13.40;64.87
70445;BME280;57902;49.638;11.070;2022-11-02T13:41:54;99033.94;;;13.50;63.77
70445;BME280;57902;49.638;11.070;2022-11-02T13:44:43;99014.84;;;13.52;64.27
70445;BME280;57902;49.638;11.070;2022-11-02T13:49:59;99025.19;;;13.54;64.12
70445;BME280;57902;49.638;11.070;2022-11-02T13:52:36;99020.84;;;13.54;63.92
70445;BME280;57902;49.638;11.070;2022-11-02T13:55:05;99016.50;;;13.55;64.01
70445;BME280;57902;49.638;11.070;2022-11-02T13:57:38;99015.56;;;13.57;63.98
70445;BME280;57902;49.638;11.070;2022-11-02T14:02:55;99014.84;;;13.54;63.43
70445;BME280;57902;49.638;11.070;2022-11-02T14:05:31;99020.03;;;13.52;64.66
70445;BME280;57902;49.638;11.070;2022-11-02T14:08:04;99022.31;;;13.63;63.03
70445;BME280;57902;49.638;11.070;2022-11-02T14:10:36;99021.28;;;13.69;62.04
70445;BME280;57902;49.638;11.070;2022-11-02T14:13:03;99021.97;;;13.74;62.11
70445;BME280;57902;49.638;11.070;2022-11-02T14:18:01;99026.28;;;13.75;60.22
70445;BME280;57902;49.638;11.070;2022-11-02T14:20:35;99031.38;;;13.78;60.22
70445;BME280;57902;49.638;11.070;2022-11-02T14:25:56;99035.97;;;13.68;60.83
70445;BME280;57902;49.638;11.070;2022-11-02T14:28:33;99035.22;;;13.64;60.60
70445;BME280;57902;49.638;11.070;2022-11-02T14:36:43;99044.16;;;13.54;60.22
70445;BME280;57902;49.638;11.070;2022-11-02T14:39:21;99053.16;;;13.42;61.33
70445;BME280;57902;49.638;11.070;2022-11-02T14:42:07;99044.56;;;13.40;60.85
70445;BME280;57902;49.638;11.070;2022-11-02T14:44:42;99040.44;;;13.35;60.52
70445;BME280;57902;49.638;11.070;2022-11-02T14:47:17;99038.81;;;13.29;60.85
70445;BME280;57902;49.638;11.070;2022-11-02T14:49:59;99049.38;;;13.21;62.01
70445;BME280;57902;49.638;11.070;2022-11-02T14:52:27;99045.25;;;13.16;61.76
70445;BME280;57902;49.638;11.070;2022-11-02T14:58:17;99037.66;;;13.08;62.23
70445;BME280;57902;49.638;11.070;2022-11-02T15:08:32;99029.81;;;12.80;63.90
70445;BME280;57902;49.638;11.070;2022-11-02T15:24:57;99026.63;;;12.35;67.13
70445;BME280;57902;49.638;11.070;2022-11-02T15:27:24;99032.00;;;12.28;67.01
70445;BME280;57902;49.638;11.070;2022-11-02T15:29:51;99032.94;;;12.25;67.43
70445;BME280;57902;49.638;11.070;2022-11-02T15:32:21;99025.38;;;12.17;68.48